DAL2122 KMSP-KLAX
Flight info
| Callsign | DAL2122 |
|---|---|
| Flight time | 3h 43m |
| Altitude | 34000 |
| Route | SCHEP1 RXANN TEYOU LLUKY BFF KD63U KD57S CHESZ Q88 PROMT LAKRR Q88 HAKMN ANJLL4 |
| Aircraft | A21N/M-SDE2E3FGHIRWXY/LB1 |
Departure
| Time | 2026-04-24 21:57 |
|---|---|
| Airport | Minneapolis–Saint Paul International Airport / Wold–Chamberlain Field (KMSP) |
Arrival
| Time | 2026-04-25 01:40 |
|---|---|
| Airport | Los Angeles International Airport (KLAX) |
| Time | Latitude | Longitude | Altitude | Speed | Heading |
|---|---|---|---|---|---|
| 2026-04-24 21:36 | 44.87882 | -93.20578 | 831 ft | 0 kts | 326° |
| 2026-04-24 21:39 | 44.87881 | -93.20578 | 831 ft | 0 kts | 326° |
| 2026-04-24 21:42 | 44.87881 | -93.20577 | 831 ft | 0 kts | 326° |
| 2026-04-24 21:45 | 44.87880 | -93.20577 | 831 ft | 0 kts | 326° |
| 2026-04-24 21:50 | 44.87870 | -93.20567 | 829 ft | 4 kts | 326° |
| 2026-04-24 21:50 | 44.87848 | -93.20546 | 827 ft | 4 kts | 326° |
| 2026-04-24 21:50 | 44.87825 | -93.20525 | 827 ft | 4 kts | 326° |
| 2026-04-24 21:51 | 44.87808 | -93.20510 | 826 ft | 1 kts | 326° |
| 2026-04-24 21:53 | 44.87808 | -93.20509 | 831 ft | 0 kts | 326° |
| 2026-04-24 21:53 | 44.87810 | -93.20512 | 831 ft | 2 kts | 321° |
| 2026-04-24 21:54 | 44.87803 | -93.20552 | 831 ft | 7 kts | 242° |
| 2026-04-24 21:54 | 44.87766 | -93.20612 | 831 ft | 9 kts | 219° |
| 2026-04-24 21:54 | 44.87704 | -93.20626 | 831 ft | 11 kts | 136° |
| 2026-04-24 21:54 | 44.87658 | -93.20530 | 827 ft | 13 kts | 121° |
| 2026-04-24 21:55 | 44.87609 | -93.20419 | 831 ft | 14 kts | 121° |
| 2026-04-24 21:55 | 44.87556 | -93.20295 | 831 ft | 16 kts | 121° |
| 2026-04-24 21:55 | 44.87497 | -93.20159 | 831 ft | 17 kts | 121° |
| 2026-04-24 21:55 | 44.87439 | -93.20064 | 832 ft | 9 kts | 188° |
| 2026-04-24 21:56 | 44.87384 | -93.20126 | 829 ft | 11 kts | 243° |
| 2026-04-24 21:56 | 44.87410 | -93.20254 | 831 ft | 26 kts | 302° |
| 2026-04-24 21:56 | 44.87637 | -93.20778 | 830 ft | 100 kts | 301° |
| 2026-04-24 21:56 | 44.88116 | -93.21890 | 833 ft | 161 kts | 302° |
| 2026-04-24 21:57 | 44.88696 | -93.23252 | 1491 ft | 161 kts | 302° |
| 2026-04-24 21:57 | 44.89145 | -93.24700 | 2253 ft | 164 kts | 286° |
| 2026-04-24 21:57 | 44.89228 | -93.26382 | 2679 ft | 183 kts | 268° |
| 2026-04-24 21:57 | 44.89011 | -93.28239 | 3182 ft | 199 kts | 261° |
| 2026-04-24 21:58 | 44.88689 | -93.30231 | 3727 ft | 217 kts | 259° |
| 2026-04-24 21:58 | 44.88338 | -93.32408 | 4117 ft | 240 kts | 259° |
| 2026-04-24 21:58 | 44.87961 | -93.34794 | 4686 ft | 256 kts | 259° |
| 2026-04-24 21:58 | 44.87395 | -93.37216 | 5384 ft | 265 kts | 242° |
| 2026-04-24 21:59 | 44.86304 | -93.39274 | 6256 ft | 266 kts | 230° |
| 2026-04-24 21:59 | 44.85075 | -93.41219 | 7153 ft | 265 kts | 229° |
| 2026-04-24 21:59 | 44.83848 | -93.43160 | 8034 ft | 265 kts | 229° |
| 2026-04-24 21:59 | 44.82616 | -93.45127 | 8934 ft | 263 kts | 229° |
| 2026-04-24 22:00 | 44.81415 | -93.47056 | 9857 ft | 262 kts | 229° |
| 2026-04-24 22:00 | 44.80215 | -93.48986 | 10400 ft | 273 kts | 230° |
| 2026-04-24 22:00 | 44.78922 | -93.51075 | 10649 ft | 293 kts | 230° |
| 2026-04-24 22:00 | 44.77541 | -93.53311 | 10878 ft | 312 kts | 230° |
| 2026-04-24 22:01 | 44.76073 | -93.55685 | 11154 ft | 329 kts | 230° |
| 2026-04-24 22:01 | 44.74551 | -93.58141 | 11721 ft | 336 kts | 231° |
| 2026-04-24 22:01 | 44.73014 | -93.60621 | 12420 ft | 338 kts | 231° |
| 2026-04-24 22:01 | 44.71462 | -93.63123 | 13167 ft | 340 kts | 232° |
| 2026-04-24 22:02 | 44.69898 | -93.65644 | 13869 ft | 342 kts | 232° |
| 2026-04-24 22:02 | 44.68328 | -93.68172 | 14491 ft | 344 kts | 232° |
| 2026-04-24 22:02 | 44.66748 | -93.70719 | 15104 ft | 347 kts | 232° |
| 2026-04-24 22:02 | 44.65157 | -93.73279 | 15723 ft | 349 kts | 232° |
| 2026-04-24 22:03 | 44.63553 | -93.75856 | 16346 ft | 352 kts | 231° |
| 2026-04-24 22:03 | 44.61939 | -93.78451 | 16976 ft | 354 kts | 231° |
| 2026-04-24 22:03 | 44.60318 | -93.81057 | 17602 ft | 356 kts | 231° |
| 2026-04-24 22:03 | 44.58683 | -93.83692 | 18266 ft | 357 kts | 232° |
| 2026-04-24 22:04 | 44.57172 | -93.86444 | 18807 ft | 358 kts | 235° |
| 2026-04-24 22:04 | 44.55694 | -93.89267 | 19324 ft | 360 kts | 236° |
| 2026-04-24 22:04 | 44.54211 | -93.92112 | 19792 ft | 364 kts | 236° |
| 2026-04-24 22:04 | 44.52706 | -93.94990 | 20217 ft | 368 kts | 235° |
| 2026-04-24 22:05 | 44.51182 | -93.97893 | 20688 ft | 371 kts | 235° |
| 2026-04-24 22:05 | 44.49647 | -94.00818 | 21180 ft | 374 kts | 235° |
| 2026-04-24 22:05 | 44.48100 | -94.03763 | 21661 ft | 377 kts | 235° |
| 2026-04-24 22:05 | 44.46540 | -94.06726 | 22122 ft | 379 kts | 235° |
| 2026-04-24 22:06 | 44.45500 | -94.08703 | 22429 ft | 381 kts | 235° |
| 2026-04-24 22:06 | 44.43923 | -94.11703 | 22884 ft | 384 kts | 235° |
| 2026-04-24 22:06 | 44.42333 | -94.14721 | 23341 ft | 387 kts | 235° |
| 2026-04-24 22:06 | 44.40729 | -94.17757 | 23745 ft | 389 kts | 234° |
| 2026-04-24 22:07 | 44.39117 | -94.20809 | 24175 ft | 391 kts | 234° |
| 2026-04-24 22:07 | 44.37480 | -94.23904 | 24624 ft | 391 kts | 234° |
| 2026-04-24 22:07 | 44.35881 | -94.26916 | 25021 ft | 392 kts | 234° |
| 2026-04-24 22:07 | 44.34248 | -94.29993 | 25424 ft | 394 kts | 234° |
| 2026-04-24 22:08 | 44.32608 | -94.33078 | 25750 ft | 397 kts | 234° |
| 2026-04-24 22:08 | 44.30956 | -94.36186 | 26099 ft | 400 kts | 234° |
| 2026-04-24 22:08 | 44.29295 | -94.39311 | 26459 ft | 402 kts | 234° |
| 2026-04-24 22:08 | 44.27624 | -94.42450 | 26819 ft | 404 kts | 234° |
| 2026-04-24 22:09 | 44.25943 | -94.45600 | 27172 ft | 405 kts | 234° |
| 2026-04-24 22:09 | 44.24258 | -94.48755 | 27583 ft | 405 kts | 234° |
| 2026-04-24 22:09 | 44.22576 | -94.51887 | 28053 ft | 404 kts | 234° |
| 2026-04-24 22:09 | 44.20896 | -94.55013 | 28525 ft | 402 kts | 234° |
| 2026-04-24 22:10 | 44.19225 | -94.58125 | 29021 ft | 400 kts | 234° |
| 2026-04-24 22:10 | 44.17569 | -94.61216 | 29568 ft | 396 kts | 234° |
| 2026-04-24 22:10 | 44.15923 | -94.64280 | 30037 ft | 394 kts | 234° |
| 2026-04-24 22:10 | 44.14284 | -94.67331 | 30378 ft | 393 kts | 234° |
| 2026-04-24 22:11 | 44.12647 | -94.70377 | 30656 ft | 393 kts | 234° |
| 2026-04-24 22:11 | 44.11005 | -94.73430 | 30859 ft | 395 kts | 234° |
| 2026-04-24 22:11 | 44.09359 | -94.76495 | 31099 ft | 396 kts | 234° |
| 2026-04-24 22:11 | 44.07710 | -94.79560 | 31376 ft | 396 kts | 234° |
| 2026-04-24 22:12 | 44.06053 | -94.82626 | 31650 ft | 396 kts | 234° |
| 2026-04-24 22:12 | 44.04406 | -94.85679 | 31918 ft | 395 kts | 234° |
| 2026-04-24 22:12 | 44.02758 | -94.88737 | 32186 ft | 395 kts | 234° |
| 2026-04-24 22:12 | 44.01109 | -94.91792 | 32446 ft | 395 kts | 233° |
| 2026-04-24 22:13 | 43.99466 | -94.94852 | 32697 ft | 395 kts | 234° |
| 2026-04-24 22:13 | 43.97861 | -94.97946 | 32981 ft | 394 kts | 234° |
| 2026-04-24 22:13 | 43.96257 | -95.01033 | 33234 ft | 394 kts | 234° |
| 2026-04-24 22:13 | 43.94652 | -95.04116 | 33462 ft | 394 kts | 234° |
| 2026-04-24 22:14 | 43.93048 | -95.07199 | 33679 ft | 394 kts | 234° |
| 2026-04-24 22:14 | 43.91440 | -95.10287 | 33864 ft | 394 kts | 234° |
| 2026-04-24 22:14 | 43.89836 | -95.13366 | 33979 ft | 396 kts | 234° |
| 2026-04-24 22:15 | 43.86603 | -95.19537 | 33973 ft | 395 kts | 234° |
| 2026-04-24 22:15 | 43.83375 | -95.25703 | 33956 ft | 395 kts | 234° |
| 2026-04-24 22:16 | 43.80145 | -95.31865 | 33955 ft | 395 kts | 234° |
| 2026-04-24 22:16 | 43.76909 | -95.38022 | 33949 ft | 396 kts | 234° |
| 2026-04-24 22:17 | 43.73668 | -95.44176 | 33944 ft | 396 kts | 234° |
| 2026-04-24 22:17 | 43.70423 | -95.50323 | 33940 ft | 396 kts | 234° |
| 2026-04-24 22:18 | 43.67189 | -95.56430 | 33923 ft | 397 kts | 234° |
| 2026-04-24 22:18 | 43.63920 | -95.62593 | 33964 ft | 398 kts | 234° |
| 2026-04-24 22:19 | 43.60647 | -95.68752 | 33959 ft | 398 kts | 234° |
| 2026-04-24 22:19 | 43.57377 | -95.74896 | 33970 ft | 397 kts | 234° |
| 2026-04-24 22:20 | 43.54111 | -95.81017 | 33952 ft | 396 kts | 234° |
| 2026-04-24 22:20 | 43.50843 | -95.87131 | 33944 ft | 396 kts | 234° |
| 2026-04-24 22:21 | 43.47571 | -95.93239 | 33913 ft | 396 kts | 234° |
| 2026-04-24 22:21 | 43.44290 | -95.99348 | 33933 ft | 397 kts | 234° |
| 2026-04-24 22:22 | 43.41000 | -96.05458 | 33935 ft | 397 kts | 234° |
| 2026-04-24 22:22 | 43.37706 | -96.11560 | 33954 ft | 397 kts | 234° |
| 2026-04-24 22:23 | 43.34421 | -96.17643 | 33932 ft | 396 kts | 234° |
| 2026-04-24 22:23 | 43.31137 | -96.23715 | 33942 ft | 396 kts | 234° |
| 2026-04-24 22:24 | 43.28234 | -96.30113 | 33955 ft | 396 kts | 244° |
| 2026-04-24 22:24 | 43.25991 | -96.37011 | 33956 ft | 396 kts | 245° |
| 2026-04-24 22:25 | 43.23755 | -96.43921 | 33934 ft | 397 kts | 245° |
| 2026-04-24 22:25 | 43.21511 | -96.50793 | 33953 ft | 397 kts | 245° |
| 2026-04-24 22:26 | 43.19247 | -96.57677 | 33944 ft | 396 kts | 245° |
| 2026-04-24 22:26 | 43.16966 | -96.64604 | 33944 ft | 396 kts | 245° |
| 2026-04-24 22:27 | 43.14698 | -96.71481 | 33956 ft | 396 kts | 245° |
| 2026-04-24 22:27 | 43.12427 | -96.78344 | 33941 ft | 396 kts | 245° |
| 2026-04-24 22:28 | 43.10147 | -96.85208 | 33974 ft | 396 kts | 245° |
| 2026-04-24 22:28 | 43.07888 | -96.92008 | 33960 ft | 394 kts | 245° |
| 2026-04-24 22:29 | 43.04476 | -97.02238 | 33961 ft | 394 kts | 245° |
| 2026-04-24 22:29 | 43.02198 | -97.09044 | 33952 ft | 394 kts | 245° |
| 2026-04-24 22:30 | 42.99913 | -97.15854 | 33931 ft | 395 kts | 245° |
| 2026-04-24 22:30 | 42.97612 | -97.22691 | 33932 ft | 397 kts | 245° |
| 2026-04-24 22:31 | 42.95303 | -97.29537 | 33931 ft | 397 kts | 245° |
| 2026-04-24 22:31 | 42.92989 | -97.36380 | 33931 ft | 397 kts | 245° |
| 2026-04-24 22:32 | 42.90668 | -97.43218 | 33931 ft | 397 kts | 245° |
| 2026-04-24 22:32 | 42.88344 | -97.50050 | 33981 ft | 397 kts | 245° |
| 2026-04-24 22:33 | 42.86016 | -97.56878 | 33974 ft | 397 kts | 245° |
| 2026-04-24 22:33 | 42.83690 | -97.63700 | 33977 ft | 397 kts | 245° |
| 2026-04-24 22:34 | 42.81364 | -97.70505 | 33979 ft | 397 kts | 245° |
| 2026-04-24 22:34 | 42.79028 | -97.77308 | 33964 ft | 397 kts | 245° |
| 2026-04-24 22:35 | 42.76686 | -97.84106 | 33976 ft | 397 kts | 245° |
| 2026-04-24 22:35 | 42.74346 | -97.90899 | 33948 ft | 396 kts | 246° |
| 2026-04-24 22:36 | 42.72004 | -97.97680 | 33952 ft | 396 kts | 246° |
| 2026-04-24 22:36 | 42.69659 | -98.04448 | 33967 ft | 395 kts | 246° |
| 2026-04-24 22:37 | 42.67326 | -98.11160 | 33954 ft | 395 kts | 246° |
| 2026-04-24 22:37 | 42.64962 | -98.17951 | 33953 ft | 395 kts | 246° |
| 2026-04-24 22:38 | 42.62606 | -98.24698 | 33947 ft | 395 kts | 246° |
| 2026-04-24 22:38 | 42.60262 | -98.31394 | 33951 ft | 395 kts | 246° |
| 2026-04-24 22:39 | 42.57903 | -98.38118 | 33943 ft | 392 kts | 247° |
| 2026-04-24 22:39 | 42.55556 | -98.44786 | 33924 ft | 392 kts | 247° |
| 2026-04-24 22:40 | 42.53208 | -98.51449 | 33917 ft | 391 kts | 246° |
| 2026-04-24 22:40 | 42.50854 | -98.58104 | 33910 ft | 391 kts | 246° |
| 2026-04-24 22:41 | 42.48825 | -98.64907 | 33907 ft | 389 kts | 257° |
| 2026-04-24 22:41 | 42.48107 | -98.70917 | 33912 ft | 389 kts | 262° |
| 2026-04-24 22:42 | 42.47290 | -98.79319 | 33912 ft | 382 kts | 263° |
| 2026-04-24 22:42 | 42.46569 | -98.86449 | 33912 ft | 382 kts | 262° |
| 2026-04-24 22:43 | 42.45836 | -98.93577 | 33915 ft | 382 kts | 262° |
| 2026-04-24 22:43 | 42.45094 | -99.00700 | 33916 ft | 382 kts | 262° |
| 2026-04-24 22:44 | 42.44353 | -99.07821 | 33916 ft | 382 kts | 262° |
| 2026-04-24 22:44 | 42.43612 | -99.14910 | 33913 ft | 377 kts | 263° |
| 2026-04-24 22:45 | 42.42869 | -99.21936 | 33912 ft | 377 kts | 263° |
| 2026-04-24 22:45 | 42.42123 | -99.28951 | 33907 ft | 377 kts | 262° |
| 2026-04-24 22:46 | 42.41377 | -99.35925 | 33904 ft | 377 kts | 262° |
| 2026-04-24 22:46 | 42.40623 | -99.42943 | 33900 ft | 377 kts | 262° |
| 2026-04-24 22:47 | 42.39866 | -99.49951 | 33904 ft | 374 kts | 263° |
| 2026-04-24 22:47 | 42.39111 | -99.56898 | 33891 ft | 373 kts | 263° |
| 2026-04-24 22:48 | 42.38350 | -99.63834 | 33886 ft | 373 kts | 263° |
| 2026-04-24 22:48 | 42.37586 | -99.70781 | 33878 ft | 373 kts | 262° |
| 2026-04-24 22:49 | 42.36816 | -99.77725 | 33875 ft | 373 kts | 262° |
| 2026-04-24 22:49 | 42.36041 | -99.84663 | 33872 ft | 373 kts | 263° |
| 2026-04-24 22:50 | 42.35267 | -99.91595 | 33863 ft | 373 kts | 263° |
| 2026-04-24 22:50 | 42.34489 | -99.98521 | 33866 ft | 373 kts | 263° |
| 2026-04-24 22:51 | 42.33836 | -100.04271 | 33861 ft | 373 kts | 263° |
| 2026-04-24 22:51 | 42.33051 | -100.11197 | 33859 ft | 373 kts | 262° |
| 2026-04-24 22:52 | 42.32258 | -100.18122 | 33853 ft | 373 kts | 262° |
| 2026-04-24 22:52 | 42.31462 | -100.25058 | 33856 ft | 375 kts | 263° |
| 2026-04-24 22:53 | 42.30656 | -100.32019 | 33852 ft | 375 kts | 263° |
| 2026-04-24 22:53 | 42.29849 | -100.38984 | 33850 ft | 375 kts | 262° |
| 2026-04-24 22:54 | 42.29035 | -100.45947 | 33848 ft | 375 kts | 262° |
| 2026-04-24 22:54 | 42.28216 | -100.52904 | 33848 ft | 375 kts | 262° |
| 2026-04-24 22:55 | 42.27393 | -100.59865 | 33844 ft | 375 kts | 263° |
| 2026-04-24 22:55 | 42.26567 | -100.66818 | 33834 ft | 375 kts | 263° |
| 2026-04-24 22:56 | 42.25735 | -100.73768 | 33821 ft | 375 kts | 263° |
| 2026-04-24 22:56 | 42.24906 | -100.80715 | 33818 ft | 375 kts | 263° |
| 2026-04-24 22:57 | 42.24068 | -100.87652 | 33806 ft | 375 kts | 263° |
| 2026-04-24 22:57 | 42.23221 | -100.94596 | 33803 ft | 375 kts | 263° |
| 2026-04-24 22:58 | 42.22377 | -101.01538 | 33803 ft | 375 kts | 263° |
| 2026-04-24 22:58 | 42.21527 | -101.08479 | 33791 ft | 375 kts | 262° |
| 2026-04-24 22:59 | 42.20671 | -101.15420 | 33790 ft | 375 kts | 262° |
| 2026-04-24 23:00 | 42.19377 | -101.25826 | 33792 ft | 375 kts | 262° |
| 2026-04-24 23:00 | 42.18514 | -101.32739 | 33793 ft | 371 kts | 263° |
| 2026-04-24 23:01 | 42.17665 | -101.39498 | 33776 ft | 365 kts | 263° |
| 2026-04-24 23:01 | 42.16817 | -101.46240 | 33764 ft | 365 kts | 263° |
| 2026-04-24 23:02 | 42.15970 | -101.52937 | 33763 ft | 365 kts | 263° |
| 2026-04-24 23:02 | 42.15114 | -101.59683 | 33760 ft | 365 kts | 263° |
| 2026-04-24 23:03 | 42.14251 | -101.66419 | 33752 ft | 365 kts | 263° |
| 2026-04-24 23:03 | 42.13394 | -101.73073 | 33752 ft | 355 kts | 263° |
| 2026-04-24 23:04 | 42.12549 | -101.79621 | 33748 ft | 355 kts | 263° |
| 2026-04-24 23:04 | 42.11699 | -101.86181 | 33743 ft | 356 kts | 262° |
| 2026-04-24 23:05 | 42.10844 | -101.92744 | 33743 ft | 356 kts | 262° |
| 2026-04-24 23:05 | 42.09982 | -101.99308 | 33742 ft | 356 kts | 262° |
| 2026-04-24 23:06 | 42.09116 | -102.05871 | 33711 ft | 356 kts | 262° |
| 2026-04-24 23:06 | 42.08252 | -102.12417 | 33736 ft | 358 kts | 262° |
| 2026-04-24 23:07 | 42.07374 | -102.19016 | 33739 ft | 358 kts | 262° |
| 2026-04-24 23:07 | 42.06497 | -102.25604 | 33739 ft | 358 kts | 262° |
| 2026-04-24 23:08 | 42.05615 | -102.32198 | 33741 ft | 358 kts | 262° |
| 2026-04-24 23:08 | 42.04727 | -102.38796 | 33745 ft | 358 kts | 262° |
| 2026-04-24 23:09 | 42.03834 | -102.45404 | 33741 ft | 360 kts | 261° |
| 2026-04-24 23:09 | 42.02934 | -102.52035 | 33755 ft | 361 kts | 261° |
| 2026-04-24 23:10 | 42.02025 | -102.58676 | 33762 ft | 361 kts | 261° |
| 2026-04-24 23:10 | 42.01115 | -102.65314 | 33766 ft | 361 kts | 261° |
| 2026-04-24 23:11 | 42.00202 | -102.71950 | 33771 ft | 361 kts | 261° |
| 2026-04-24 23:11 | 41.99285 | -102.78584 | 33765 ft | 361 kts | 261° |
| 2026-04-24 23:12 | 41.98364 | -102.85201 | 33772 ft | 360 kts | 261° |
| 2026-04-24 23:12 | 41.97444 | -102.91806 | 33769 ft | 360 kts | 261° |
| 2026-04-24 23:13 | 41.96518 | -102.98415 | 33765 ft | 360 kts | 261° |
| 2026-04-24 23:13 | 41.95587 | -103.05030 | 33760 ft | 360 kts | 261° |
| 2026-04-24 23:14 | 41.94652 | -103.11628 | 33761 ft | 360 kts | 261° |
| 2026-04-24 23:14 | 41.93710 | -103.18256 | 33749 ft | 362 kts | 261° |
| 2026-04-24 23:15 | 41.92762 | -103.24906 | 33752 ft | 363 kts | 261° |
| 2026-04-24 23:15 | 41.91808 | -103.31564 | 33736 ft | 363 kts | 261° |
| 2026-04-24 23:16 | 41.90857 | -103.38175 | 33741 ft | 363 kts | 261° |
| 2026-04-24 23:16 | 41.89874 | -103.44822 | 33737 ft | 364 kts | 258° |
| 2026-04-24 23:17 | 41.87882 | -103.51141 | 33735 ft | 373 kts | 243° |
| 2026-04-24 23:17 | 41.84878 | -103.56814 | 33741 ft | 376 kts | 240° |
| 2026-04-24 23:18 | 41.81815 | -103.62489 | 33739 ft | 375 kts | 240° |
| 2026-04-24 23:18 | 41.78766 | -103.68184 | 33708 ft | 377 kts | 241° |
| 2026-04-24 23:19 | 41.75676 | -103.73962 | 33727 ft | 384 kts | 240° |
| 2026-04-24 23:19 | 41.72557 | -103.79770 | 33735 ft | 384 kts | 240° |
| 2026-04-24 23:20 | 41.69436 | -103.85576 | 33731 ft | 384 kts | 240° |
| 2026-04-24 23:20 | 41.66339 | -103.91326 | 33738 ft | 378 kts | 240° |
| 2026-04-24 23:21 | 41.63261 | -103.97038 | 33741 ft | 379 kts | 240° |
| 2026-04-24 23:21 | 41.60179 | -104.02747 | 33742 ft | 379 kts | 240° |
| 2026-04-24 23:22 | 41.57090 | -104.08448 | 33737 ft | 379 kts | 240° |
| 2026-04-24 23:22 | 41.53996 | -104.14144 | 33721 ft | 379 kts | 240° |
| 2026-04-24 23:23 | 41.50911 | -104.19829 | 33715 ft | 376 kts | 239° |
| 2026-04-24 23:23 | 41.47831 | -104.25486 | 33704 ft | 379 kts | 239° |
| 2026-04-24 23:24 | 41.44730 | -104.31175 | 33703 ft | 380 kts | 239° |
| 2026-04-24 23:24 | 41.41641 | -104.36822 | 33697 ft | 379 kts | 239° |
| 2026-04-24 23:25 | 41.38527 | -104.42508 | 33699 ft | 379 kts | 239° |
| 2026-04-24 23:25 | 41.35416 | -104.48182 | 33696 ft | 379 kts | 239° |
| 2026-04-24 23:26 | 41.32303 | -104.53851 | 33708 ft | 379 kts | 239° |
| 2026-04-24 23:26 | 41.29187 | -104.59517 | 33725 ft | 379 kts | 239° |
| 2026-04-24 23:27 | 41.26071 | -104.65172 | 33734 ft | 380 kts | 238° |
| 2026-04-24 23:27 | 41.22947 | -104.70822 | 33747 ft | 379 kts | 238° |
| 2026-04-24 23:28 | 41.19824 | -104.76465 | 33759 ft | 379 kts | 238° |
| 2026-04-24 23:28 | 41.16697 | -104.82101 | 33762 ft | 379 kts | 238° |
| 2026-04-24 23:29 | 41.13566 | -104.87732 | 33761 ft | 379 kts | 238° |
| 2026-04-24 23:29 | 41.10435 | -104.93360 | 33717 ft | 380 kts | 238° |
| 2026-04-24 23:30 | 41.07268 | -104.99047 | 33730 ft | 385 kts | 238° |
| 2026-04-24 23:30 | 41.04086 | -105.04745 | 33643 ft | 385 kts | 238° |
| 2026-04-24 23:31 | 41.00895 | -105.10443 | 33627 ft | 385 kts | 238° |
| 2026-04-24 23:31 | 40.97720 | -105.16108 | 33578 ft | 385 kts | 238° |
| 2026-04-24 23:32 | 40.94520 | -105.21805 | 33602 ft | 386 kts | 238° |
| 2026-04-24 23:32 | 40.91307 | -105.27507 | 33846 ft | 387 kts | 238° |
| 2026-04-24 23:32 | 40.89695 | -105.30362 | 34026 ft | 388 kts | 238° |
| 2026-04-24 23:33 | 40.88084 | -105.33220 | 34209 ft | 388 kts | 238° |
| 2026-04-24 23:33 | 40.86992 | -105.35154 | 34330 ft | 388 kts | 238° |
| 2026-04-24 23:33 | 40.84852 | -105.38943 | 34562 ft | 389 kts | 238° |
| 2026-04-24 23:33 | 40.83232 | -105.41809 | 34726 ft | 390 kts | 238° |
| 2026-04-24 23:34 | 40.81610 | -105.44680 | 34883 ft | 390 kts | 238° |
| 2026-04-24 23:34 | 40.79985 | -105.47548 | 35041 ft | 390 kts | 238° |
| 2026-04-24 23:34 | 40.78362 | -105.50411 | 35221 ft | 391 kts | 238° |
| 2026-04-24 23:34 | 40.76729 | -105.53279 | 35369 ft | 391 kts | 238° |
| 2026-04-24 23:35 | 40.75095 | -105.56150 | 35504 ft | 391 kts | 238° |
| 2026-04-24 23:35 | 40.73460 | -105.59023 | 35631 ft | 392 kts | 238° |
| 2026-04-24 23:35 | 40.71817 | -105.61898 | 35655 ft | 392 kts | 238° |
| 2026-04-24 23:36 | 40.68537 | -105.67628 | 35643 ft | 389 kts | 238° |
| 2026-04-24 23:36 | 40.65291 | -105.73299 | 35647 ft | 387 kts | 238° |
| 2026-04-24 23:37 | 40.62598 | -105.78007 | 35646 ft | 387 kts | 238° |
| 2026-04-24 23:37 | 40.57221 | -105.87413 | 35648 ft | 387 kts | 238° |
| 2026-04-24 23:38 | 40.54510 | -105.92142 | 35659 ft | 387 kts | 238° |
| 2026-04-24 23:38 | 40.51258 | -105.97789 | 35659 ft | 387 kts | 238° |
| 2026-04-24 23:39 | 40.48228 | -106.03598 | 35657 ft | 384 kts | 242° |
| 2026-04-24 23:39 | 40.45388 | -106.09479 | 35663 ft | 384 kts | 242° |
| 2026-04-24 23:40 | 40.42521 | -106.15390 | 35662 ft | 384 kts | 242° |
| 2026-04-24 23:40 | 40.39650 | -106.21295 | 35662 ft | 384 kts | 242° |
| 2026-04-24 23:41 | 40.36771 | -106.27201 | 35667 ft | 384 kts | 242° |
| 2026-04-24 23:41 | 40.33892 | -106.33093 | 35664 ft | 384 kts | 242° |
| 2026-04-24 23:42 | 40.31012 | -106.38974 | 35669 ft | 381 kts | 242° |
| 2026-04-24 23:42 | 40.28147 | -106.44810 | 35674 ft | 381 kts | 242° |
| 2026-04-24 23:43 | 40.25280 | -106.50643 | 35686 ft | 381 kts | 242° |
| 2026-04-24 23:43 | 40.22410 | -106.56470 | 35683 ft | 381 kts | 242° |
| 2026-04-24 23:44 | 40.19536 | -106.62292 | 35683 ft | 381 kts | 242° |
| 2026-04-24 23:44 | 40.16657 | -106.68112 | 35702 ft | 381 kts | 242° |
| 2026-04-24 23:45 | 40.13775 | -106.73933 | 35692 ft | 383 kts | 242° |
| 2026-04-24 23:45 | 40.10875 | -106.79773 | 35683 ft | 384 kts | 241° |
| 2026-04-24 23:46 | 40.07954 | -106.85640 | 35711 ft | 386 kts | 241° |
| 2026-04-24 23:46 | 40.05028 | -106.91512 | 35728 ft | 386 kts | 241° |
| 2026-04-24 23:47 | 40.02095 | -106.97387 | 35725 ft | 386 kts | 241° |
| 2026-04-24 23:47 | 39.99186 | -107.03206 | 35728 ft | 386 kts | 241° |
| 2026-04-24 23:48 | 39.96256 | -107.09055 | 35745 ft | 385 kts | 242° |
| 2026-04-24 23:48 | 39.93331 | -107.14893 | 35742 ft | 384 kts | 242° |
| 2026-04-24 23:49 | 39.90402 | -107.20721 | 35752 ft | 384 kts | 241° |
| 2026-04-24 23:49 | 39.87468 | -107.26546 | 35745 ft | 385 kts | 241° |
| 2026-04-24 23:50 | 39.84531 | -107.32366 | 35742 ft | 385 kts | 241° |
| 2026-04-24 23:50 | 39.81591 | -107.38182 | 35740 ft | 385 kts | 241° |
| 2026-04-24 23:51 | 39.78648 | -107.43996 | 35728 ft | 385 kts | 241° |
| 2026-04-24 23:51 | 39.75692 | -107.49818 | 35745 ft | 386 kts | 241° |
| 2026-04-24 23:52 | 39.72733 | -107.55633 | 35756 ft | 386 kts | 241° |
| 2026-04-24 23:52 | 39.69766 | -107.61461 | 35766 ft | 386 kts | 241° |
| 2026-04-24 23:53 | 39.66801 | -107.67271 | 35783 ft | 386 kts | 241° |
| 2026-04-24 23:53 | 39.63832 | -107.73079 | 35787 ft | 386 kts | 241° |
| 2026-04-24 23:54 | 39.60876 | -107.78840 | 35788 ft | 387 kts | 240° |
| 2026-04-24 23:54 | 39.57897 | -107.84653 | 35706 ft | 387 kts | 240° |
| 2026-04-24 23:55 | 39.54917 | -107.90457 | 35712 ft | 387 kts | 240° |
| 2026-04-24 23:55 | 39.51922 | -107.96272 | 35708 ft | 388 kts | 240° |
| 2026-04-24 23:56 | 39.48842 | -108.02015 | 35690 ft | 389 kts | 238° |
| 2026-04-24 23:56 | 39.45595 | -108.07615 | 35694 ft | 389 kts | 238° |
| 2026-04-24 23:57 | 39.42337 | -108.13216 | 35695 ft | 390 kts | 237° |
| 2026-04-24 23:57 | 39.39078 | -108.18815 | 35692 ft | 389 kts | 238° |
| 2026-04-24 23:58 | 39.35825 | -108.24387 | 35700 ft | 389 kts | 238° |
| 2026-04-24 23:58 | 39.32571 | -108.29962 | 35722 ft | 389 kts | 238° |
| 2026-04-24 23:59 | 39.29310 | -108.35535 | 35739 ft | 389 kts | 237° |
| 2026-04-24 23:59 | 39.26070 | -108.41075 | 35755 ft | 389 kts | 238° |
| 2026-04-25 00:00 | 39.22810 | -108.46638 | 35769 ft | 389 kts | 237° |
| 2026-04-25 00:00 | 39.19535 | -108.52209 | 35780 ft | 390 kts | 237° |
| 2026-04-25 00:01 | 39.16253 | -108.57782 | 35782 ft | 390 kts | 237° |
| 2026-04-25 00:01 | 39.12967 | -108.63354 | 35781 ft | 391 kts | 237° |
| 2026-04-25 00:02 | 39.09678 | -108.68920 | 35765 ft | 390 kts | 237° |
| 2026-04-25 00:02 | 39.06389 | -108.74478 | 35740 ft | 390 kts | 237° |
| 2026-04-25 00:03 | 39.03095 | -108.80031 | 35673 ft | 391 kts | 237° |
| 2026-04-25 00:03 | 38.99786 | -108.85601 | 35687 ft | 392 kts | 237° |
| 2026-04-25 00:04 | 38.96471 | -108.91172 | 35685 ft | 392 kts | 237° |
| 2026-04-25 00:04 | 38.93157 | -108.96732 | 35687 ft | 392 kts | 237° |
| 2026-04-25 00:05 | 38.89830 | -109.02299 | 35689 ft | 392 kts | 237° |
| 2026-04-25 00:05 | 38.86504 | -109.07864 | 35692 ft | 393 kts | 237° |
| 2026-04-25 00:06 | 38.83168 | -109.13431 | 35689 ft | 394 kts | 237° |
| 2026-04-25 00:06 | 38.79834 | -109.18991 | 35693 ft | 394 kts | 237° |
| 2026-04-25 00:07 | 38.76490 | -109.24550 | 35709 ft | 394 kts | 237° |
| 2026-04-25 00:07 | 38.73143 | -109.30104 | 35710 ft | 394 kts | 237° |
| 2026-04-25 00:08 | 38.69794 | -109.35658 | 35708 ft | 394 kts | 237° |
| 2026-04-25 00:08 | 38.66442 | -109.41203 | 35706 ft | 394 kts | 237° |
| 2026-04-25 00:09 | 38.63094 | -109.46734 | 35714 ft | 394 kts | 237° |
| 2026-04-25 00:09 | 38.59733 | -109.52274 | 35717 ft | 394 kts | 237° |
| 2026-04-25 00:10 | 38.56375 | -109.57812 | 35707 ft | 393 kts | 237° |
| 2026-04-25 00:10 | 38.53020 | -109.63325 | 35714 ft | 393 kts | 237° |
| 2026-04-25 00:11 | 38.50227 | -109.67906 | 35707 ft | 393 kts | 237° |
| 2026-04-25 00:11 | 38.46305 | -109.74333 | 35708 ft | 393 kts | 237° |
| 2026-04-25 00:12 | 38.42965 | -109.79795 | 35708 ft | 392 kts | 237° |
| 2026-04-25 00:12 | 38.39599 | -109.85284 | 35696 ft | 393 kts | 236° |
| 2026-04-25 00:13 | 38.36226 | -109.90778 | 35699 ft | 393 kts | 236° |
| 2026-04-25 00:13 | 38.32853 | -109.96272 | 35696 ft | 394 kts | 236° |
| 2026-04-25 00:14 | 38.29474 | -110.01759 | 35695 ft | 394 kts | 237° |
| 2026-04-25 00:14 | 38.26615 | -110.07624 | 35693 ft | 388 kts | 245° |
| 2026-04-25 00:15 | 38.24121 | -110.13704 | 35685 ft | 387 kts | 246° |
| 2026-04-25 00:15 | 38.21630 | -110.19731 | 35691 ft | 384 kts | 245° |
| 2026-04-25 00:16 | 38.19131 | -110.25738 | 35684 ft | 384 kts | 245° |
| 2026-04-25 00:16 | 38.16630 | -110.31740 | 35694 ft | 384 kts | 245° |
| 2026-04-25 00:17 | 38.14123 | -110.37739 | 35684 ft | 384 kts | 245° |
| 2026-04-25 00:17 | 38.11612 | -110.43733 | 35682 ft | 384 kts | 245° |
| 2026-04-25 00:18 | 38.09099 | -110.49721 | 35687 ft | 384 kts | 245° |
| 2026-04-25 00:18 | 38.06584 | -110.55708 | 35687 ft | 385 kts | 245° |
| 2026-04-25 00:19 | 38.04064 | -110.61696 | 35689 ft | 385 kts | 245° |
| 2026-04-25 00:19 | 38.01557 | -110.67637 | 35687 ft | 385 kts | 245° |
| 2026-04-25 00:20 | 37.99031 | -110.73613 | 35683 ft | 384 kts | 245° |
| 2026-04-25 00:20 | 37.96500 | -110.79583 | 35680 ft | 385 kts | 245° |
| 2026-04-25 00:21 | 37.93967 | -110.85559 | 35693 ft | 385 kts | 245° |
| 2026-04-25 00:21 | 37.91425 | -110.91538 | 35699 ft | 386 kts | 245° |
| 2026-04-25 00:22 | 37.88880 | -110.97515 | 35698 ft | 386 kts | 245° |
| 2026-04-25 00:22 | 37.86341 | -111.03466 | 35707 ft | 382 kts | 245° |
| 2026-04-25 00:23 | 37.83820 | -111.09365 | 35716 ft | 382 kts | 245° |
| 2026-04-25 00:23 | 37.81286 | -111.15281 | 35714 ft | 383 kts | 245° |
| 2026-04-25 00:24 | 37.79175 | -111.20195 | 35710 ft | 382 kts | 245° |
| 2026-04-25 00:24 | 37.76638 | -111.26102 | 35714 ft | 382 kts | 245° |
| 2026-04-25 00:25 | 37.74103 | -111.31996 | 35737 ft | 382 kts | 245° |
| 2026-04-25 00:25 | 37.71562 | -111.37886 | 35736 ft | 382 kts | 245° |
| 2026-04-25 00:26 | 37.69014 | -111.43782 | 35751 ft | 382 kts | 245° |
| 2026-04-25 00:26 | 37.66468 | -111.49663 | 35752 ft | 382 kts | 245° |
| 2026-04-25 00:27 | 37.63917 | -111.55549 | 35757 ft | 382 kts | 244° |
| 2026-04-25 00:27 | 37.61359 | -111.61435 | 35758 ft | 382 kts | 244° |
| 2026-04-25 00:28 | 37.58805 | -111.67304 | 35760 ft | 382 kts | 244° |
| 2026-04-25 00:28 | 37.56244 | -111.73177 | 35760 ft | 382 kts | 244° |
| 2026-04-25 00:29 | 37.53679 | -111.79045 | 35784 ft | 382 kts | 244° |
| 2026-04-25 00:29 | 37.51111 | -111.84907 | 35813 ft | 382 kts | 244° |
| 2026-04-25 00:30 | 37.48248 | -111.90533 | 35792 ft | 384 kts | 238° |
| 2026-04-25 00:30 | 37.45155 | -111.95933 | 35821 ft | 378 kts | 239° |
| 2026-04-25 00:31 | 37.42091 | -112.01315 | 35817 ft | 379 kts | 239° |
| 2026-04-25 00:31 | 37.39024 | -112.06708 | 35824 ft | 379 kts | 239° |
| 2026-04-25 00:32 | 37.35957 | -112.12091 | 35803 ft | 379 kts | 239° |
| 2026-04-25 00:32 | 37.32884 | -112.17480 | 35790 ft | 380 kts | 239° |
| 2026-04-25 00:33 | 37.29801 | -112.22878 | 35808 ft | 380 kts | 239° |
| 2026-04-25 00:33 | 37.26715 | -112.28274 | 35810 ft | 380 kts | 239° |
| 2026-04-25 00:34 | 37.23623 | -112.33668 | 35814 ft | 381 kts | 239° |
| 2026-04-25 00:34 | 37.20525 | -112.39054 | 35811 ft | 381 kts | 239° |
| 2026-04-25 00:35 | 37.17439 | -112.44429 | 35812 ft | 380 kts | 239° |
| 2026-04-25 00:35 | 37.14344 | -112.49810 | 35790 ft | 380 kts | 239° |
| 2026-04-25 00:36 | 37.11275 | -112.55126 | 35806 ft | 375 kts | 239° |
| 2026-04-25 00:36 | 37.08223 | -112.60415 | 35812 ft | 374 kts | 239° |
| 2026-04-25 00:37 | 37.05167 | -112.65699 | 35831 ft | 374 kts | 239° |
| 2026-04-25 00:37 | 37.02107 | -112.70979 | 35853 ft | 375 kts | 239° |
| 2026-04-25 00:38 | 36.99046 | -112.76253 | 35868 ft | 375 kts | 239° |
| 2026-04-25 00:38 | 36.95981 | -112.81526 | 35887 ft | 374 kts | 239° |
| 2026-04-25 00:39 | 36.92918 | -112.86789 | 35907 ft | 374 kts | 239° |
| 2026-04-25 00:39 | 36.89851 | -112.92048 | 35918 ft | 374 kts | 239° |
| 2026-04-25 00:40 | 36.86783 | -112.97302 | 35913 ft | 374 kts | 239° |
| 2026-04-25 00:40 | 36.83713 | -113.02551 | 35902 ft | 374 kts | 239° |
| 2026-04-25 00:41 | 36.80637 | -113.07802 | 35891 ft | 375 kts | 239° |
| 2026-04-25 00:41 | 36.77572 | -113.13021 | 35858 ft | 370 kts | 239° |
| 2026-04-25 00:42 | 36.74541 | -113.18177 | 35844 ft | 371 kts | 239° |
| 2026-04-25 00:42 | 36.71493 | -113.23360 | 35821 ft | 371 kts | 239° |
| 2026-04-25 00:43 | 36.68441 | -113.28541 | 35786 ft | 371 kts | 239° |
| 2026-04-25 00:43 | 36.65385 | -113.33717 | 35789 ft | 371 kts | 239° |
| 2026-04-25 00:44 | 36.62328 | -113.38889 | 35781 ft | 371 kts | 239° |
| 2026-04-25 00:44 | 36.59267 | -113.44056 | 35775 ft | 371 kts | 239° |
| 2026-04-25 00:45 | 36.56206 | -113.49220 | 35779 ft | 371 kts | 239° |
| 2026-04-25 00:45 | 36.53141 | -113.54381 | 35769 ft | 371 kts | 239° |
| 2026-04-25 00:46 | 36.50074 | -113.59538 | 35768 ft | 371 kts | 239° |
| 2026-04-25 00:47 | 36.45467 | -113.67264 | 35731 ft | 371 kts | 239° |
| 2026-04-25 00:47 | 36.42398 | -113.72404 | 35751 ft | 370 kts | 239° |
| 2026-04-25 00:48 | 36.39328 | -113.77540 | 35718 ft | 371 kts | 238° |
| 2026-04-25 00:48 | 36.36241 | -113.82692 | 35730 ft | 372 kts | 238° |
| 2026-04-25 00:49 | 36.33152 | -113.87845 | 35708 ft | 372 kts | 238° |
| 2026-04-25 00:49 | 36.30059 | -113.92995 | 35704 ft | 372 kts | 238° |
| 2026-04-25 00:50 | 36.26962 | -113.98141 | 35706 ft | 372 kts | 238° |
| 2026-04-25 00:50 | 36.23865 | -114.03279 | 35688 ft | 372 kts | 238° |
| 2026-04-25 00:51 | 36.20771 | -114.08410 | 35623 ft | 372 kts | 238° |
| 2026-04-25 00:51 | 36.17651 | -114.13574 | 35815 ft | 373 kts | 238° |
| 2026-04-25 00:51 | 36.16099 | -114.16139 | 35636 ft | 373 kts | 238° |
| 2026-04-25 00:52 | 36.14559 | -114.18682 | 35630 ft | 375 kts | 238° |
| 2026-04-25 00:52 | 36.11412 | -114.23872 | 35654 ft | 375 kts | 238° |
| 2026-04-25 00:53 | 36.08249 | -114.28986 | 35640 ft | 375 kts | 236° |
| 2026-04-25 00:53 | 36.04795 | -114.33822 | 35659 ft | 375 kts | 234° |
| 2026-04-25 00:54 | 36.01350 | -114.38585 | 35662 ft | 375 kts | 234° |
| 2026-04-25 00:54 | 35.97892 | -114.43367 | 35667 ft | 372 kts | 234° |
| 2026-04-25 00:55 | 35.94449 | -114.48126 | 35689 ft | 371 kts | 234° |
| 2026-04-25 00:55 | 35.91012 | -114.52874 | 35697 ft | 371 kts | 234° |
| 2026-04-25 00:56 | 35.87568 | -114.57623 | 35696 ft | 371 kts | 234° |
| 2026-04-25 00:56 | 35.84117 | -114.62370 | 35676 ft | 372 kts | 234° |
| 2026-04-25 00:57 | 35.80667 | -114.67114 | 35716 ft | 372 kts | 234° |
| 2026-04-25 00:57 | 35.77210 | -114.71859 | 35715 ft | 372 kts | 234° |
| 2026-04-25 00:58 | 35.73755 | -114.76591 | 35758 ft | 372 kts | 234° |
| 2026-04-25 00:58 | 35.70293 | -114.81325 | 35766 ft | 372 kts | 234° |
| 2026-04-25 00:59 | 35.66832 | -114.86053 | 35772 ft | 372 kts | 234° |
| 2026-04-25 00:59 | 35.63376 | -114.90783 | 35758 ft | 372 kts | 234° |
| 2026-04-25 01:00 | 35.59923 | -114.95510 | 35771 ft | 371 kts | 234° |
| 2026-04-25 01:00 | 35.56470 | -115.00231 | 35761 ft | 371 kts | 234° |
| 2026-04-25 01:01 | 35.53009 | -115.04950 | 35780 ft | 372 kts | 234° |
| 2026-04-25 01:01 | 35.49513 | -115.09651 | 35784 ft | 374 kts | 233° |
| 2026-04-25 01:02 | 35.45953 | -115.14308 | 35802 ft | 374 kts | 233° |
| 2026-04-25 01:02 | 35.42385 | -115.18968 | 35795 ft | 375 kts | 233° |
| 2026-04-25 01:03 | 35.38805 | -115.23637 | 35799 ft | 376 kts | 233° |
| 2026-04-25 01:03 | 35.35221 | -115.28305 | 35815 ft | 376 kts | 233° |
| 2026-04-25 01:04 | 35.31657 | -115.32937 | 35808 ft | 376 kts | 233° |
| 2026-04-25 01:04 | 35.28043 | -115.37635 | 35805 ft | 377 kts | 233° |
| 2026-04-25 01:05 | 35.24461 | -115.42276 | 35820 ft | 377 kts | 233° |
| 2026-04-25 01:05 | 35.20859 | -115.46942 | 35819 ft | 377 kts | 233° |
| 2026-04-25 01:06 | 35.17260 | -115.51600 | 35811 ft | 377 kts | 233° |
| 2026-04-25 01:06 | 35.13654 | -115.56260 | 35810 ft | 377 kts | 233° |
| 2026-04-25 01:07 | 35.10039 | -115.60910 | 35803 ft | 378 kts | 233° |
| 2026-04-25 01:07 | 35.06403 | -115.65557 | 35788 ft | 378 kts | 232° |
| 2026-04-25 01:08 | 35.02770 | -115.70198 | 35793 ft | 379 kts | 232° |
| 2026-04-25 01:08 | 34.99129 | -115.74841 | 35795 ft | 379 kts | 232° |
| 2026-04-25 01:09 | 34.96097 | -115.78698 | 35777 ft | 379 kts | 232° |
| 2026-04-25 01:09 | 34.92446 | -115.83331 | 35771 ft | 379 kts | 232° |
| 2026-04-25 01:10 | 34.88794 | -115.87961 | 35765 ft | 379 kts | 232° |
| 2026-04-25 01:10 | 34.85150 | -115.92593 | 35755 ft | 379 kts | 232° |
| 2026-04-25 01:11 | 34.81505 | -115.97217 | 35760 ft | 377 kts | 232° |
| 2026-04-25 01:11 | 34.77888 | -116.01800 | 35734 ft | 375 kts | 232° |
| 2026-04-25 01:12 | 34.74292 | -116.06375 | 35740 ft | 374 kts | 233° |
| 2026-04-25 01:12 | 34.70698 | -116.10962 | 35741 ft | 375 kts | 233° |
| 2026-04-25 01:13 | 34.67113 | -116.15524 | 35419 ft | 372 kts | 233° |
| 2026-04-25 01:13 | 34.65320 | -116.17802 | 35174 ft | 373 kts | 232° |
| 2026-04-25 01:13 | 34.63522 | -116.20084 | 34932 ft | 374 kts | 232° |
| 2026-04-25 01:13 | 34.61723 | -116.22366 | 34697 ft | 374 kts | 232° |
| 2026-04-25 01:14 | 34.59925 | -116.24649 | 34453 ft | 374 kts | 232° |
| 2026-04-25 01:14 | 34.58150 | -116.26898 | 34209 ft | 374 kts | 232° |
| 2026-04-25 01:14 | 34.56349 | -116.29180 | 33975 ft | 374 kts | 232° |
| 2026-04-25 01:14 | 34.54544 | -116.31460 | 33727 ft | 375 kts | 232° |
| 2026-04-25 01:15 | 34.52740 | -116.33746 | 33465 ft | 376 kts | 232° |
| 2026-04-25 01:15 | 34.50930 | -116.36035 | 33195 ft | 377 kts | 232° |
| 2026-04-25 01:15 | 34.49113 | -116.38331 | 32935 ft | 378 kts | 232° |
| 2026-04-25 01:15 | 34.47288 | -116.40637 | 32643 ft | 380 kts | 232° |
| 2026-04-25 01:16 | 34.45452 | -116.42949 | 32380 ft | 383 kts | 232° |
| 2026-04-25 01:16 | 34.43601 | -116.45283 | 32123 ft | 384 kts | 232° |
| 2026-04-25 01:16 | 34.41877 | -116.47739 | 31865 ft | 382 kts | 238° |
| 2026-04-25 01:16 | 34.40505 | -116.50476 | 31618 ft | 380 kts | 245° |
| 2026-04-25 01:17 | 34.39319 | -116.53340 | 31313 ft | 381 kts | 246° |
| 2026-04-25 01:17 | 34.38158 | -116.56202 | 30743 ft | 377 kts | 247° |
| 2026-04-25 01:17 | 34.37001 | -116.59040 | 30102 ft | 375 kts | 246° |
| 2026-04-25 01:17 | 34.35842 | -116.61856 | 29377 ft | 374 kts | 246° |
| 2026-04-25 01:18 | 34.34687 | -116.64662 | 28711 ft | 371 kts | 246° |
| 2026-04-25 01:18 | 34.33537 | -116.67453 | 28082 ft | 368 kts | 246° |
| 2026-04-25 01:18 | 34.32417 | -116.70197 | 27571 ft | 361 kts | 247° |
| 2026-04-25 01:18 | 34.31327 | -116.72910 | 27065 ft | 356 kts | 247° |
| 2026-04-25 01:19 | 34.30245 | -116.75592 | 26557 ft | 353 kts | 247° |
| 2026-04-25 01:19 | 34.29173 | -116.78248 | 26038 ft | 350 kts | 247° |
| 2026-04-25 01:19 | 34.28115 | -116.80877 | 25535 ft | 346 kts | 247° |
| 2026-04-25 01:19 | 34.27068 | -116.83475 | 25058 ft | 341 kts | 247° |
| 2026-04-25 01:20 | 34.26032 | -116.86044 | 24552 ft | 339 kts | 247° |
| 2026-04-25 01:20 | 34.25017 | -116.88562 | 24070 ft | 336 kts | 247° |
| 2026-04-25 01:20 | 34.23984 | -116.91123 | 23564 ft | 334 kts | 248° |
| 2026-04-25 01:20 | 34.22983 | -116.93606 | 23025 ft | 332 kts | 247° |
| 2026-04-25 01:21 | 34.21979 | -116.96105 | 22483 ft | 328 kts | 247° |
| 2026-04-25 01:21 | 34.21043 | -116.98589 | 21966 ft | 323 kts | 251° |
| 2026-04-25 01:21 | 34.20315 | -117.01140 | 21484 ft | 320 kts | 254° |
| 2026-04-25 01:21 | 34.19632 | -117.03704 | 21028 ft | 328 kts | 253° |
| 2026-04-25 01:22 | 34.18930 | -117.06332 | 20632 ft | 327 kts | 253° |
| 2026-04-25 01:22 | 34.18232 | -117.08920 | 20121 ft | 320 kts | 253° |
| 2026-04-25 01:22 | 34.17551 | -117.11443 | 19660 ft | 314 kts | 253° |
| 2026-04-25 01:22 | 34.16875 | -117.13934 | 19218 ft | 311 kts | 253° |
| 2026-04-25 01:23 | 34.16209 | -117.16391 | 18808 ft | 306 kts | 253° |
| 2026-04-25 01:23 | 34.15540 | -117.18822 | 18509 ft | 303 kts | 253° |
| 2026-04-25 01:23 | 34.14880 | -117.21219 | 18133 ft | 300 kts | 253° |
| 2026-04-25 01:23 | 34.14225 | -117.23603 | 17708 ft | 299 kts | 253° |
| 2026-04-25 01:24 | 34.13570 | -117.25980 | 17258 ft | 298 kts | 253° |
| 2026-04-25 01:24 | 34.12918 | -117.28349 | 16844 ft | 298 kts | 253° |
| 2026-04-25 01:24 | 34.12265 | -117.30716 | 16454 ft | 297 kts | 252° |
| 2026-04-25 01:24 | 34.11612 | -117.33071 | 16066 ft | 296 kts | 252° |
| 2026-04-25 01:25 | 34.10964 | -117.35425 | 15675 ft | 295 kts | 252° |
| 2026-04-25 01:25 | 34.10333 | -117.37778 | 15300 ft | 294 kts | 254° |
| 2026-04-25 01:25 | 34.09743 | -117.40139 | 14928 ft | 294 kts | 254° |
| 2026-04-25 01:25 | 34.09156 | -117.42493 | 14531 ft | 293 kts | 253° |
| 2026-04-25 01:26 | 34.08566 | -117.44846 | 14122 ft | 292 kts | 253° |
| 2026-04-25 01:26 | 34.07977 | -117.47191 | 13744 ft | 292 kts | 253° |
| 2026-04-25 01:26 | 34.07389 | -117.49537 | 13387 ft | 291 kts | 253° |
| 2026-04-25 01:26 | 34.06800 | -117.51867 | 13039 ft | 290 kts | 253° |
| 2026-04-25 01:27 | 34.06209 | -117.54186 | 12668 ft | 289 kts | 253° |
| 2026-04-25 01:27 | 34.05619 | -117.56488 | 12281 ft | 289 kts | 253° |
| 2026-04-25 01:27 | 34.05027 | -117.58805 | 11873 ft | 289 kts | 253° |
| 2026-04-25 01:28 | 34.03844 | -117.63429 | 11136 ft | 284 kts | 253° |
| 2026-04-25 01:28 | 34.03272 | -117.65659 | 10893 ft | 274 kts | 253° |
| 2026-04-25 01:28 | 34.02715 | -117.67818 | 10598 ft | 271 kts | 253° |
| 2026-04-25 01:28 | 34.02202 | -117.69995 | 10291 ft | 269 kts | 258° |
| 2026-04-25 01:29 | 34.01932 | -117.72218 | 9972 ft | 267 kts | 263° |
| 2026-04-25 01:29 | 34.01727 | -117.74444 | 9600 ft | 267 kts | 263° |
| 2026-04-25 01:29 | 34.01520 | -117.76668 | 9219 ft | 267 kts | 263° |
| 2026-04-25 01:29 | 34.01313 | -117.78889 | 8843 ft | 266 kts | 263° |
| 2026-04-25 01:30 | 34.01101 | -117.81106 | 8481 ft | 266 kts | 263° |
| 2026-04-25 01:30 | 34.00886 | -117.83322 | 8122 ft | 266 kts | 263° |
| 2026-04-25 01:30 | 34.00663 | -117.85528 | 7692 ft | 266 kts | 262° |
| 2026-04-25 01:30 | 34.00440 | -117.87766 | 7169 ft | 268 kts | 263° |
| 2026-04-25 01:31 | 34.00219 | -117.89951 | 7008 ft | 255 kts | 262° |
| 2026-04-25 01:31 | 34.00013 | -117.92007 | 6954 ft | 238 kts | 262° |
| 2026-04-25 01:31 | 33.99826 | -117.93932 | 6813 ft | 225 kts | 262° |
| 2026-04-25 01:31 | 33.99646 | -117.95769 | 6501 ft | 219 kts | 262° |
| 2026-04-25 01:32 | 33.99464 | -117.97583 | 6115 ft | 221 kts | 263° |
| 2026-04-25 01:32 | 33.99278 | -117.99435 | 5971 ft | 223 kts | 263° |
| 2026-04-25 01:32 | 33.99093 | -118.01267 | 5714 ft | 217 kts | 263° |
| 2026-04-25 01:32 | 33.98915 | -118.03078 | 5366 ft | 220 kts | 262° |
| 2026-04-25 01:33 | 33.98733 | -118.04892 | 5045 ft | 215 kts | 263° |
| 2026-04-25 01:33 | 33.98585 | -118.06672 | 4964 ft | 212 kts | 266° |
| 2026-04-25 01:33 | 33.98460 | -118.08436 | 4957 ft | 210 kts | 262° |
| 2026-04-25 01:33 | 33.98286 | -118.10190 | 4888 ft | 211 kts | 262° |
| 2026-04-25 01:34 | 33.98108 | -118.11937 | 4666 ft | 209 kts | 262° |
| 2026-04-25 01:34 | 33.97934 | -118.13642 | 4395 ft | 201 kts | 262° |
| 2026-04-25 01:34 | 33.97765 | -118.15295 | 4127 ft | 198 kts | 261° |
| 2026-04-25 01:34 | 33.97595 | -118.16942 | 3872 ft | 198 kts | 262° |
| 2026-04-25 01:35 | 33.97430 | -118.18555 | 3610 ft | 190 kts | 261° |
| 2026-04-25 01:35 | 33.97269 | -118.20123 | 3358 ft | 188 kts | 261° |
| 2026-04-25 01:35 | 33.97109 | -118.21687 | 3116 ft | 187 kts | 260° |
| 2026-04-25 01:35 | 33.96950 | -118.23235 | 2869 ft | 185 kts | 260° |
| 2026-04-25 01:36 | 33.96794 | -118.24758 | 2630 ft | 182 kts | 259° |
| 2026-04-25 01:36 | 33.96641 | -118.26247 | 2386 ft | 175 kts | 259° |
| 2026-04-25 01:36 | 33.96498 | -118.27645 | 2161 ft | 161 kts | 259° |
| 2026-04-25 01:36 | 33.96366 | -118.28937 | 1964 ft | 151 kts | 259° |
| 2026-04-25 01:37 | 33.96242 | -118.30145 | 1761 ft | 134 kts | 258° |
| 2026-04-25 01:37 | 33.96130 | -118.31219 | 1591 ft | 127 kts | 259° |
| 2026-04-25 01:37 | 33.96022 | -118.32276 | 1415 ft | 128 kts | 258° |
| 2026-04-25 01:37 | 33.95912 | -118.33342 | 1246 ft | 127 kts | 258° |
| 2026-04-25 01:38 | 33.95804 | -118.34390 | 1070 ft | 130 kts | 259° |
| 2026-04-25 01:38 | 33.95694 | -118.35476 | 902 ft | 129 kts | 261° |
| 2026-04-25 01:38 | 33.95585 | -118.36539 | 724 ft | 129 kts | 262° |
| 2026-04-25 01:38 | 33.95475 | -118.37611 | 562 ft | 127 kts | 263° |
| 2026-04-25 01:39 | 33.95355 | -118.38651 | 380 ft | 125 kts | 264° |
| 2026-04-25 01:39 | 33.95263 | -118.39695 | 196 ft | 125 kts | 263° |
| 2026-04-25 01:39 | 33.95157 | -118.40728 | 104 ft | 120 kts | 263° |
| 2026-04-25 01:39 | 33.95067 | -118.41610 | 100 ft | 83 kts | 263° |
| 2026-04-25 01:40 | 33.95025 | -118.42004 | 99 ft | 20 kts | 259° |
| 2026-04-25 01:40 | 33.94968 | -118.42161 | 101 ft | 21 kts | 231° |
| 2026-04-25 01:40 | 33.94889 | -118.42253 | 100 ft | 15 kts | 216° |
| 2026-04-25 01:40 | 33.94820 | -118.42281 | 102 ft | 12 kts | 185° |
| 2026-04-25 01:41 | 33.94737 | -118.42277 | 100 ft | 10 kts | 172° |
| 2026-04-25 01:41 | 33.94694 | -118.42269 | 101 ft | 2 kts | 169° |
| 2026-04-25 01:41 | 33.94683 | -118.42246 | 101 ft | 5 kts | 96° |
| 2026-04-25 01:41 | 33.94687 | -118.42187 | 100 ft | 9 kts | 83° |
| 2026-04-25 01:42 | 33.94696 | -118.42099 | 99 ft | 12 kts | 83° |
| 2026-04-25 01:42 | 33.94707 | -118.41989 | 99 ft | 14 kts | 83° |
| 2026-04-25 01:42 | 33.94720 | -118.41859 | 99 ft | 17 kts | 83° |
| 2026-04-25 01:42 | 33.94735 | -118.41711 | 100 ft | 19 kts | 83° |
| 2026-04-25 01:43 | 33.94748 | -118.41574 | 102 ft | 16 kts | 83° |
| 2026-04-25 01:43 | 33.94763 | -118.41441 | 101 ft | 12 kts | 79° |
| 2026-04-25 01:43 | 33.94787 | -118.41332 | 100 ft | 15 kts | 82° |
| 2026-04-25 01:43 | 33.94801 | -118.41199 | 101 ft | 17 kts | 83° |
| 2026-04-25 01:44 | 33.94816 | -118.41048 | 100 ft | 19 kts | 83° |
| 2026-04-25 01:44 | 33.94833 | -118.40882 | 100 ft | 18 kts | 83° |
| 2026-04-25 01:44 | 33.94846 | -118.40759 | 100 ft | 15 kts | 83° |
| 2026-04-25 01:44 | 33.94859 | -118.40643 | 100 ft | 10 kts | 82° |
| 2026-04-25 01:45 | 33.94823 | -118.40598 | 101 ft | 9 kts | 170° |
| 2026-04-25 01:45 | 33.94751 | -118.40580 | 99 ft | 12 kts | 171° |
| 2026-04-25 01:45 | 33.94694 | -118.40572 | 100 ft | 7 kts | 173° |
| 2026-04-25 01:45 | 33.94660 | -118.40570 | 100 ft | 3 kts | 194° |
| 2026-04-25 01:46 | 33.94646 | -118.40596 | 98 ft | 3 kts | 257° |
| 2026-04-25 01:46 | 33.94643 | -118.40623 | 98 ft | 3 kts | 262° |
| 2026-04-25 01:46 | 33.94642 | -118.40634 | 98 ft | 1 kts | 262° |
| 2026-04-25 01:46 | 33.94641 | -118.40645 | 98 ft | 0 kts | 263° |
| 2026-04-25 01:50 | 33.94641 | -118.40644 | 98 ft | 0 kts | 263° |
| 2026-04-25 01:54 | 33.94641 | -118.40643 | 98 ft | 0 kts | 263° |
| 2026-04-25 01:58 | 33.94641 | -118.40642 | 98 ft | 0 kts | 263° |
| 2026-04-25 02:03 | 33.94641 | -118.40641 | 98 ft | 0 kts | 263° |
| 2026-04-25 02:08 | 33.94641 | -118.40640 | 98 ft | 0 kts | 263° |
| 2026-04-25 02:11 | 33.94641 | -118.40639 | 98 ft | 0 kts | 263° |
| 2026-04-25 02:15 | 33.94641 | -118.40638 | 98 ft | 0 kts | 263° |
| 2026-04-25 02:18 | 33.94641 | -118.40637 | 98 ft | 0 kts | 263° |
| 2026-04-25 02:22 | 33.94641 | -118.40636 | 98 ft | 0 kts | 263° |
| 2026-04-25 02:24 | 33.94642 | -118.40636 | 98 ft | 0 kts | 263° |
| 2026-04-25 02:28 | 33.94642 | -118.40635 | 98 ft | 0 kts | 263° |